Coroico, Bolivia
Current Conditions -  °F | °C
As of 12:43 PM on Friday 21 Nov 2014 (Local Time) from SLLP Reporting Station
Thunderstorm Thunderstorm  
Wind Chill: 59°   Ceiling: Unl
Heat Index: 59°   Visibility: 6mi
Dew Point: 32°   Wind: 9mph
Humidity: 36%   Direction: 110°ESE
Pressure: 30.53"   Gusts: NA
Location:  16.19°S, 67.72°W
Report Text: SLLP 211643Z 11008KT 050V160 9999 VCTS SCT017 FEW020CB SCT20015/00 Q1034
Loading
Personal Weather Stations






























Interactive Weather Map New forecast layout! Learn more

10-Day Weather Forecast

Advertisements
Track Severe Weather on mobile